Time;durP1;ratioP1;P1;durP2;ratioP2;P2;SDS_P1;SDS_P2;PMS_P1;PMS_P2;Temp;Humidity;BMP_temperature;BMP_pressure;BME280_temperature;BME280_humidity;BME280_pressure;Samples;Min_cycle;Max_cycle;Signal;HPM_P1;HPM_P2
2021/11/02 00:02:30;;;;;;;5.97;2.90;;;;;;;7.90;100.00;96918.47;10575601;27;20052;-72
2021/11/02 00:07:33;;;;;;;5.70;2.40;;;;;;;7.89;100.00;96911.44;10562772;28;20512;-71
2021/11/02 00:12:38;;;;;;;8.85;2.70;;;;;;;7.86;100.00;96913.50;10569150;27;20043;-71
2021/11/02 00:17:41;;;;;;;5.22;2.42;;;;;;;7.84;100.00;96909.31;10591582;27;20054;-70
2021/11/02 00:22:53;;;;;;;8.80;2.88;;;;;;;7.80;100.00;96897.28;10551941;27;20116;-71
2021/11/02 00:27:58;;;;;;;;;;;;;;;7.76;100.00;96912.06;10605327;27;20159;-71
2021/11/02 00:33:01;;;;;;;8.52;2.83;;;;;;;7.78;100.00;96907.38;10585733;27;19919;-71
2021/11/02 00:38:04;;;;;;;5.75;2.30;;;;;;;7.80;100.00;96894.63;10560889;27;20523;-71
2021/11/02 00:43:09;;;;;;;5.95;2.60;;;;;;;7.78;100.00;96893.97;10553751;27;20039;-71
2021/11/02 00:48:23;;;;;;;6.63;2.70;;;;;;;7.79;100.00;96892.94;10584371;27;20843;-71
2021/11/02 00:53:27;;;;;;;6.43;2.42;;;;;;;7.76;100.00;96891.44;10555637;27;20119;-71
2021/11/02 00:58:31;;;;;;;6.72;2.50;;;;;;;7.79;100.00;96891.09;10605489;27;20082;-71
2021/11/02 01:03:36;;;;;;;6.18;2.20;;;;;;;7.78;100.00;96885.91;10576984;27;20047;-68
2021/11/02 01:08:39;;;;;;;9.48;2.70;;;;;;;7.78;100.00;96891.28;10562610;27;20059;-68
2021/11/02 01:13:44;;;;;;;5.72;2.60;;;;;;;7.76;100.00;96893.31;10572129;27;20054;-67
2021/11/02 01:18:47;;;;;;;7.85;2.47;;;;;;;7.74;100.00;96887.28;10578095;27;20138;-68
2021/11/02 01:23:51;;;;;;;8.57;2.50;;;;;;;7.72;100.00;96885.63;10557188;27;20062;-68
2021/11/02 01:28:55;;;;;;;5.95;2.55;;;;;;;7.73;100.00;96891.81;10602974;27;20047;-68
2021/11/02 01:34:00;;;;;;;5.32;2.63;;;;;;;7.72;100.00;96885.63;10584019;27;20096;-69
2021/11/02 01:39:06;;;;;;;7.15;2.63;;;;;;;7.71;100.00;96883.13;10603984;27;20492;-68
2021/11/02 01:44:11;;;;;;;5.65;2.75;;;;;;;7.68;100.00;96889.69;10552122;27;20078;-71
2021/11/02 01:49:14;;;;;;;6.78;2.88;;;;;;;7.66;100.00;96883.66;10558032;28;20074;-71
2021/11/02 01:54:18;;;;;;;6.25;2.80;;;;;;;7.62;100.00;96882.34;10577929;27;20035;-72
2021/11/02 01:59:27;;;;;;;7.90;2.80;;;;;;;7.60;100.00;96884.38;10600853;27;20412;-71
2021/11/02 02:04:55;;;;;;;7.65;2.53;;;;;;;7.58;100.00;96873.03;10580750;27;20050;-71
2021/11/02 02:10:13;;;;;;;7.40;2.67;;;;;;;7.56;100.00;96875.06;10599071;27;20043;-71
2021/11/02 02:15:23;;;;;;;6.45;2.72;;;;;;;7.53;100.00;96876.22;10584001;27;20046;-70
2021/11/02 02:21:05;;;;;;;7.45;2.92;;;;;;;7.47;100.00;96865.38;10558622;27;20138;-70
2021/11/02 02:26:20;;;;;;;7.17;3.33;;;;;;;7.44;100.00;96865.78;10553156;27;20405;-70
2021/11/02 02:31:29;;;;;;;5.30;3.03;;;;;;;7.43;100.00;96859.56;10587820;27;20128;-70
2021/11/02 02:36:36;;;;;;;5.30;2.75;;;;;;;7.39;100.00;96856.41;10570032;27;20056;-70
2021/11/02 02:41:45;;;;;;;10.77;3.60;;;;;;;7.38;100.00;96845.91;10556885;28;20405;-70
2021/11/02 02:46:53;;;;;;;8.52;3.42;;;;;;;7.36;100.00;96848.72;10589727;27;20142;-71
2021/11/02 02:51:57;;;;;;;7.55;3.40;;;;;;;7.32;100.00;96839.41;10556131;28;20043;-71
2021/11/02 02:57:01;;;;;;;7.03;3.83;;;;;;;7.29;100.00;96831.72;10558565;27;20055;-71
2021/11/02 03:02:12;;;;;;;6.85;3.85;;;;;;;7.28;100.00;96832.72;10555814;27;20048;-70
2021/11/02 03:07:16;;;;;;;5.45;3.90;;;;;;;7.27;100.00;96833.75;10537750;28;20060;-71
2021/11/02 03:12:26;;;;;;;7.45;4.22;;;;;;;7.20;100.00;96827.44;10558265;28;20044;-71
2021/11/02 03:17:36;;;;;;;8.25;4.45;;;;;;;7.14;100.00;96831.69;10584481;27;20047;-70
2021/11/02 03:44:42;;;;;;;8.85;3.80;;;;;;;7.09;100.00;96836.72;10564094;28;20097;-70
2021/11/02 03:49:58;;;;;;;8.63;4.80;;;;;;;7.03;100.00;96838.28;10522762;28;20043;-71
2021/11/02 03:55:06;;;;;;;8.93;4.55;;;;;;;7.01;100.00;96837.59;10561507;28;20054;-71
2021/11/02 04:33:28;;;;;;;6.72;5.35;;;;;;;6.74;100.00;96846.97;10548168;27;20632;-70
2021/11/02 05:11:04;;;;;;;8.60;6.67;;;;;;;6.37;100.00;96841.31;10475049;28;20974;-71
2021/11/02 05:48:34;;;;;;;;;;;;;;;6.20;100.00;96855.75;10475486;28;21241;-68
2021/11/02 05:59:14;;;;;;;17.73;13.10;;;;;;;6.09;100.00;96857.78;10505723;28;20524;-69
2021/11/02 06:04:42;;;;;;;17.85;12.25;;;;;;;6.05;100.00;96861.81;10501829;28;20048;-67
2021/11/02 06:09:53;;;;;;;15.05;9.98;;;;;;;6.03;100.00;96863.84;10517383;28;20052;-68
2021/11/02 06:31:20;;;;;;;16.10;11.07;;;;;;;5.96;100.00;96879.69;10511132;28;20110;-67
2021/11/02 06:47:45;;;;;;;12.65;8.77;;;;;;;5.96;100.00;96878.84;10503996;28;20121;-67
2021/11/02 06:53:29;;;;;;;10.73;8.95;;;;;;;5.95;100.00;96871.81;10472187;28;20047;-69
2021/11/02 06:59:06;;;;;;;13.73;8.93;;;;;;;5.96;100.00;96873.50;10467034;28;20761;-69
2021/11/02 07:20:31;;;;;;;13.18;9.85;;;;;;;6.26;100.00;96895.19;10480396;28;20052;-68
2021/11/02 07:25:44;;;;;;;13.18;9.63;;;;;;;6.36;100.00;96894.97;10481975;28;20040;-70
2021/11/02 08:47:02;;;;;;;9.43;4.40;;;;;;;8.18;100.00;96865.91;10592033;27;20477;-71
2021/11/02 08:52:06;;;;;;;6.55;4.00;;;;;;;8.23;100.00;96865.34;10553425;28;20085;-71
2021/11/02 08:57:11;;;;;;;10.00;3.88;;;;;;;8.24;100.00;96864.31;10600697;27;20043;-74
2021/11/02 09:02:23;;;;;;;9.20;3.90;;;;;;;8.34;100.00;96858.69;10592377;27;20775;-71
2021/11/02 09:07:29;;;;;;;9.73;3.78;;;;;;;8.44;100.00;96861.06;10546542;28;20563;-71
2021/11/02 09:12:34;;;;;;;7.65;3.50;;;;;;;8.55;100.00;96847.22;10558462;28;20047;-70
2021/11/02 09:17:46;;;;;;;6.32;3.20;;;;;;;8.63;100.00;96849.81;10558630;28;20410;-71
2021/11/02 09:22:49;;;;;;;7.32;3.42;;;;;;;8.70;100.00;96844.50;10565203;27;20145;-71
2021/11/02 09:27:54;;;;;;;8.05;3.63;;;;;;;8.73;100.00;96851.34;10602410;27;20118;-70
2021/11/02 09:32:57;;;;;;;8.23;3.83;;;;;;;8.74;100.00;96842.28;10591685;27;20042;-70
2021/11/02 09:38:14;;;;;;;8.00;4.13;;;;;;;8.83;100.00;96846.53;10602203;27;20089;-70
2021/11/02 09:44:01;;;;;;;6.40;3.95;;;;;;;9.02;100.00;96834.34;10583848;27;20062;-71
2021/11/02 09:49:55;;;;;;;8.45;3.00;;;;;;;9.33;100.00;96837.75;10525554;28;20051;-70
2021/11/02 09:55:32;;;;;;;4.10;1.77;;;;;;;9.74;100.00;96838.91;10548064;27;20122;-70
2021/11/02 10:00:57;;;;;;;4.22;2.00;;;;;;;10.06;100.00;96832.06;10555117;28;20039;-71
2021/11/02 10:06:21;;;;;;;3.50;1.98;;;;;;;10.28;100.00;96829.34;10589759;27;20741;-75
2021/11/02 10:11:31;;;;;;;2.55;1.50;;;;;;;10.47;100.00;96825.94;10600013;27;20043;-75
2021/11/02 10:17:02;;;;;;;5.35;1.83;;;;;;;10.74;100.00;96817.97;10588335;27;20044;-74
2021/11/02 10:22:26;;;;;;;;;;;;;;;10.89;100.00;96815.09;10556472;28;20047;-75
2021/11/02 10:27:47;;;;;;;3.97;1.63;;;;;;;10.93;100.00;96804.75;10551797;27;20395;-75
2021/11/02 10:32:57;;;;;;;6.03;1.60;;;;;;;10.97;100.00;96799.78;10562487;27;20035;-74
2021/11/02 10:38:08;;;;;;;4.07;1.40;;;;;;;10.98;100.00;96791.50;10602192;27;20043;-71
2021/11/02 10:43:52;;;;;;;2.55;1.40;;;;;;;11.06;100.00;96794.00;10587896;27;20049;-70
2021/11/02 10:49:00;;;;;;;2.45;1.20;;;;;;;11.16;100.00;96798.16;10574101;27;20423;-70
2021/11/02 10:54:20;;;;;;;4.25;1.20;;;;;;;11.23;100.00;96797.13;10558892;27;20050;-71
2021/11/02 10:59:24;;;;;;;3.67;1.05;;;;;;;11.24;100.00;96793.41;10564622;27;20147;-71
2021/11/02 11:04:33;;;;;;;2.25;1.02;;;;;;;11.30;100.00;96799.00;10574599;27;20053;-71
2021/11/02 11:09:37;;;;;;;4.78;1.23;;;;;;;11.37;100.00;96797.97;10600786;27;20051;-66
2021/11/02 11:14:45;;;;;;;2.50;1.13;;;;;;;11.10;100.00;96797.97;10587132;28;20045;-67
2021/11/02 11:20:01;;;;;;;2.63;1.10;;;;;;;10.98;100.00;96802.28;10566455;28;20051;-72
2021/11/02 11:25:14;;;;;;;3.55;1.30;;;;;;;11.00;100.00;96805.56;10569355;27;20039;-70
2021/11/02 11:30:19;;;;;;;4.43;1.30;;;;;;;10.92;100.00;96800.38;10599878;27;20051;-68
2021/11/02 11:35:24;;;;;;;2.92;1.40;;;;;;;10.79;100.00;96799.31;10566084;27;20040;-67
2021/11/02 11:40:27;;;;;;;2.47;1.33;;;;;;;10.70;100.00;96805.91;10532058;28;20055;-69
2021/11/02 11:45:33;;;;;;;3.60;1.30;;;;;;;10.58;100.00;96810.22;10518835;28;20409;-69
2021/11/02 11:50:39;;;;;;;2.33;1.38;;;;;;;10.46;100.00;96807.28;10484639;28;20039;-69
2021/11/02 11:55:44;;;;;;;2.47;1.30;;;;;;;10.33;100.00;96805.31;10497729;28;20050;-69
2021/11/02 12:00:51;;;;;;;3.65;1.50;;;;;;;10.40;100.00;96803.53;10522632;28;20069;-69
2021/11/02 12:06:03;;;;;;;1.08;0.70;;;;;;;10.21;100.00;96804.22;10492982;28;20075;-75
2021/11/02 12:11:06;;;;;;;1.25;0.65;;;;;;;10.14;100.00;96801.50;10477459;28;20056;-75
2021/11/02 12:16:20;;;;;;;1.55;0.75;;;;;;;10.13;100.00;96810.59;10508884;28;20040;-69
2021/11/02 12:21:32;;;;;;;2.70;0.80;;;;;;;10.15;100.00;96798.63;10477292;28;20059;-69
2021/11/02 12:26:41;;;;;;;1.13;0.70;;;;;;;10.25;100.00;96805.50;10438030;28;20055;-69
2021/11/02 12:31:46;;;;;;;2.22;1.30;;;;;;;10.31;100.00;96794.75;10440574;28;20080;-68
2021/11/02 12:36:51;;;;;;;2.53;1.30;;;;;;;10.36;100.00;96796.84;10478436;28;20048;-68
2021/11/02 12:41:57;;;;;;;2.88;1.33;;;;;;;10.30;100.00;96794.94;10477322;28;20045;-68
2021/11/02 12:47:02;;;;;;;4.38;1.60;;;;;;;10.27;100.00;96790.00;10475125;28;20045;-68
2021/11/02 12:52:08;;;;;;;3.22;1.40;;;;;;;10.27;100.00;96792.69;10474061;28;20043;-70
2021/11/02 12:57:14;;;;;;;5.15;1.40;;;;;;;10.22;100.00;96787.91;10474106;28;20926;-69
2021/11/02 13:02:20;;;;;;;2.70;1.60;;;;;;;10.13;100.00;96795.28;10472272;28;20092;-69
2021/11/02 13:07:26;;;;;;;5.15;1.30;;;;;;;10.12;100.00;96801.69;10476407;28;20060;-70
2021/11/02 13:12:29;;;;;;;2.75;1.40;;;;;;;10.12;100.00;96796.31;10470932;28;20051;-69
2021/11/02 13:17:41;;;;;;;5.75;2.83;;;;;;;10.20;100.00;96802.56;10461951;28;20040;-69
2021/11/02 13:22:53;;;;;;;3.10;1.20;;;;;;;10.15;100.00;96804.00;10476438;28;20080;-70
2021/11/02 13:28:01;;;;;;;4.88;1.67;;;;;;;10.21;100.00;96799.69;10476947;28;20367;-69
2021/11/02 13:33:07;;;;;;;3.97;1.60;;;;;;;10.17;100.00;96809.19;10466973;28;20084;-69
2021/11/02 13:38:30;;;;;;;4.03;1.85;;;;;;;10.09;100.00;96815.53;10476969;28;20089;-69
2021/11/02 13:43:36;;;;;;;5.32;1.65;;;;;;;10.02;100.00;96806.63;10477441;28;20052;-70
2021/11/02 13:48:40;;;;;;;2.92;1.70;;;;;;;10.01;100.00;96815.72;10465349;28;20049;-68
2021/11/02 13:53:44;;;;;;;2.85;1.50;;;;;;;10.00;100.00;96811.34;10475833;28;20045;-69
2021/11/02 13:58:48;;;;;;;7.60;1.73;;;;;;;9.94;100.00;96807.59;10476639;28;20047;-69
2021/11/02 14:03:58;;;;;;;6.43;2.40;;;;;;;9.95;100.00;96813.78;10468063;28;20049;-69
2021/11/02 14:09:05;;;;;;;7.80;2.03;;;;;;;9.92;100.00;96809.66;10475434;28;20079;-69
2021/11/02 14:14:10;;;;;;;3.10;1.60;;;;;;;10.02;100.00;96803.94;10477622;28;20041;-68
2021/11/02 14:19:39;;;;;;;4.75;1.50;;;;;;;10.09;100.00;96812.84;10450901;28;20049;-74
2021/11/02 14:24:45;;;;;;;4.63;2.58;;;;;;;10.11;100.00;96808.09;10461581;28;20059;-70
2021/11/02 14:29:52;;;;;;;3.38;1.60;;;;;;;10.12;100.00;96811.63;10473772;28;20044;-70
2021/11/02 14:34:54;;;;;;;3.35;1.40;;;;;;;10.09;100.00;96810.16;10475012;28;20052;-70
2021/11/02 14:40:02;;;;;;;4.30;1.30;;;;;;;10.06;100.00;96813.25;10473894;28;20055;-72
2021/11/02 14:45:06;;;;;;;2.80;1.30;;;;;;;10.09;100.00;96815.53;10469125;28;20068;-69
2021/11/02 14:50:37;;;;;;;5.85;2.15;;;;;;;9.97;100.00;96815.28;10474339;28;20167;-70
2021/11/02 14:55:53;;;;;;;4.18;1.65;;;;;;;9.94;100.00;96818.34;10467639;28;20059;-72
2021/11/02 15:00:56;;;;;;;5.68;1.58;;;;;;;9.87;100.00;96818.31;10474067;28;20124;-72
2021/11/02 15:06:03;;;;;;;2.42;1.60;;;;;;;9.83;100.00;96808.97;10476175;28;20475;-72
2021/11/02 15:11:10;;;;;;;7.07;2.00;;;;;;;9.75;100.00;96819.88;10475148;28;20499;-72
2021/11/02 15:16:14;;;;;;;6.53;3.63;;;;;;;9.73;100.00;96816.53;10467007;28;20481;-72
2021/11/02 15:21:27;;;;;;;7.88;3.75;;;;;;;9.67;100.00;96818.16;10474453;28;20495;-72
2021/11/02 15:26:33;;;;;;;11.27;3.13;;;;;;;9.64;100.00;96823.91;10468291;28;20041;-72
2021/11/02 15:31:36;;;;;;;5.25;1.85;;;;;;;9.55;100.00;96815.19;10467713;28;20120;-72
2021/11/02 15:36:39;;;;;;;5.35;2.00;;;;;;;9.47;100.00;96819.84;10469638;28;20044;-73
2021/11/02 15:41:43;;;;;;;3.58;2.10;;;;;;;9.39;100.00;96816.28;10477276;28;20106;-73
2021/11/02 15:46:46;;;;;;;5.15;2.00;;;;;;;9.34;100.00;96817.91;10494384;28;20044;-71
2021/11/02 15:51:54;;;;;;;4.05;2.55;;;;;;;9.34;100.00;96817.91;10472779;28;20804;-71
2021/11/02 15:57:10;;;;;;;5.93;2.35;;;;;;;9.28;100.00;96807.91;10479399;28;20047;-72
2021/11/02 16:02:14;;;;;;;9.32;1.98;;;;;;;9.25;100.00;96820.69;10472060;28;20049;-69
2021/11/02 16:07:17;;;;;;;6.13;1.80;;;;;;;9.15;100.00;96812.13;10469244;28;20430;-70
2021/11/02 16:12:31;;;;;;;3.10;1.52;;;;;;;9.05;100.00;96820.53;10464871;28;20521;-70
2021/11/02 16:17:39;;;;;;;4.60;1.70;;;;;;;8.91;100.00;96819.53;10482955;28;20051;-68
2021/11/02 16:22:52;;;;;;;2.13;1.33;;;;;;;8.80;100.00;96811.97;10474024;28;20406;-68
2021/11/02 16:27:59;;;;;;;3.75;1.70;;;;;;;8.68;100.00;96818.88;10438243;28;20047;-69
2021/11/02 16:33:03;;;;;;;4.03;1.50;;;;;;;8.58;100.00;96813.81;10443905;28;20138;-69
2021/11/02 16:38:27;;;;;;;4.57;1.60;;;;;;;8.45;100.00;96825.16;10479728;28;20045;-69
2021/11/02 16:43:35;;;;;;;3.40;1.50;;;;;;;8.29;100.00;96823.53;10476302;28;20151;-68
2021/11/02 16:48:44;;;;;;;4.43;1.52;;;;;;;8.24;100.00;96833.97;10468355;28;20040;-68
2021/11/02 16:53:47;;;;;;;6.50;2.70;;;;;;;8.10;100.00;96843.69;10482930;28;20037;-70
2021/11/02 16:58:53;;;;;;;6.55;3.58;;;;;;;8.02;100.00;96844.59;10479299;28;20529;-68
2021/11/02 17:03:58;;;;;;;5.68;3.63;;;;;;;7.94;100.00;96837.47;10475220;28;20080;-68
2021/11/02 17:09:24;;;;;;;3.97;2.67;;;;;;;7.80;100.00;96839.13;10479101;28;20053;-68
2021/11/02 17:14:29;;;;;;;6.43;2.70;;;;;;;7.71;100.00;96849.09;10475832;28;20754;-69
2021/11/02 17:19:42;;;;;;;6.10;2.20;;;;;;;7.67;100.00;96842.44;10474180;28;20506;-69
2021/11/02 17:24:45;;;;;;;3.50;2.10;;;;;;;7.61;100.00;96851.22;10481392;28;20484;-68
2021/11/02 17:29:50;;;;;;;3.97;2.00;;;;;;;7.53;100.00;96852.09;10477165;28;20053;-70
2021/11/02 17:34:54;;;;;;;4.68;1.95;;;;;;;7.48;100.00;96859.03;10475802;28;20037;-69
2021/11/02 17:39:59;;;;;;;5.07;1.95;;;;;;;7.40;100.00;96855.41;10476933;28;20654;-68
2021/11/02 17:45:05;;;;;;;7.22;2.10;;;;;;;7.35;100.00;96852.41;10475437;28;20608;-68
2021/11/02 17:50:09;;;;;;;6.18;3.58;;;;;;;7.30;100.00;96860.19;10474180;28;20133;-67
2021/11/02 17:55:15;;;;;;;21.88;10.43;;;;;;;7.25;100.00;96862.53;10473307;28;20155;-71
2021/11/02 18:00:22;;;;;;;12.48;7.45;;;;;;;7.21;100.00;96869.28;10473942;28;20818;-69
2021/11/02 18:05:27;;;;;;;8.52;3.33;;;;;;;7.11;100.00;96868.69;10480382;28;20498;-69
2021/11/02 18:10:33;;;;;;;16.40;9.65;;;;;;;7.10;100.00;96881.25;10475199;28;20058;-69
2021/11/02 18:15:38;;;;;;;10.35;5.90;;;;;;;7.11;100.00;96876.72;10479423;28;20127;-69
2021/11/02 18:20:42;;;;;;;4.60;2.75;;;;;;;7.12;100.00;96883.72;10474526;28;20045;-67
2021/11/02 18:25:45;;;;;;;10.00;2.88;;;;;;;7.13;100.00;96883.56;10471222;28;20058;-67
2021/11/02 18:30:50;;;;;;;9.63;2.97;;;;;;;7.18;100.00;96891.06;10473233;28;20044;-68
2021/11/02 18:35:55;;;;;;;7.05;3.40;;;;;;;7.20;100.00;96891.72;10477299;28;20406;-73
2021/11/02 18:40:58;;;;;;;4.95;2.90;;;;;;;7.22;100.00;96900.41;10477119;28;20076;-72
2021/11/02 18:46:03;;;;;;;7.38;3.22;;;;;;;7.24;100.00;96901.06;10473878;28;20055;-78
2021/11/02 18:51:08;;;;;;;7.13;2.90;;;;;;;7.25;100.00;96900.03;10478200;28;20098;-71
2021/11/02 18:56:11;;;;;;;7.60;3.00;;;;;;;7.25;100.00;96905.41;10501420;28;20144;-73
2021/11/02 19:01:18;;;;;;;7.88;3.20;;;;;;;7.27;100.00;96908.75;10483380;28;20047;-66
2021/11/02 19:06:22;;;;;;;5.13;3.30;;;;;;;7.27;100.00;96914.09;10474125;28;20072;-72
2021/11/02 19:11:25;;;;;;;9.35;3.50;;;;;;;7.27;100.00;96916.78;10479285;28;20151;-71
2021/11/02 19:16:31;;;;;;;8.98;3.80;;;;;;;7.29;100.00;96920.13;10484052;28;20144;-71
2021/11/02 19:21:35;;;;;;;8.20;3.63;;;;;;;7.28;100.00;96922.97;10474744;28;20425;-74
2021/11/02 19:26:38;;;;;;;6.43;3.33;;;;;;;7.28;100.00;96926.47;10473607;28;20547;-71
2021/11/02 19:31:42;;;;;;;7.15;3.15;;;;;;;7.28;100.00;96931.84;10474990;28;20075;-72
2021/11/02 19:36:45;;;;;;;6.55;3.72;;;;;;;7.30;100.00;96928.97;10471186;28;20510;-72
2021/11/02 19:41:49;;;;;;;6.70;3.22;;;;;;;7.29;100.00;96936.19;10474314;28;20854;-72
2021/11/02 19:46:54;;;;;;;7.57;3.47;;;;;;;7.30;100.00;96945.03;10496856;28;20120;-75
2021/11/02 19:51:57;;;;;;;4.97;3.20;;;;;;;7.24;100.00;96942.09;10521134;28;20951;-74
2021/11/02 19:57:01;;;;;;;5.68;3.72;;;;;;;7.19;100.00;96947.13;10489732;28;20139;-71
2021/11/02 20:02:05;;;;;;;5.97;3.67;;;;;;;7.14;100.00;96949.50;10482016;28;20120;-70
2021/11/02 20:07:17;;;;;;;8.73;3.63;;;;;;;7.06;100.00;96950.38;10479619;28;20051;-74
2021/11/02 20:12:27;;;;;;;4.60;3.00;;;;;;;7.01;100.00;96957.28;10478621;28;20088;-68
2021/11/02 20:17:34;;;;;;;5.00;3.08;;;;;;;6.96;100.00;96967.66;10481314;28;20848;-72
2021/11/02 20:22:37;;;;;;;4.95;3.10;;;;;;;6.93;100.00;96974.22;10479415;28;20146;-74
2021/11/02 20:27:41;;;;;;;5.00;2.90;;;;;;;6.88;100.00;96976.59;10483454;28;20041;-70
2021/11/02 20:32:46;;;;;;;6.15;3.50;;;;;;;6.85;100.00;96985.78;10476945;28;20149;-69
2021/11/02 20:38:02;;;;;;;5.22;3.25;;;;;;;6.83;100.00;96985.09;10459140;28;20052;-68
2021/11/02 20:43:08;;;;;;;4.75;2.80;;;;;;;6.84;100.00;96983.28;10458891;28;20429;-69
2021/11/02 20:48:17;;;;;;;4.05;2.70;;;;;;;6.82;100.00;96985.28;10458766;28;20136;-70
2021/11/02 20:53:20;;;;;;;3.17;2.60;;;;;;;6.84;100.00;96989.47;10444813;28;20047;-69
2021/11/02 20:58:27;;;;;;;3.15;2.60;;;;;;;6.84;100.00;96999.34;10481490;28;20044;-69
2021/11/02 21:03:33;;;;;;;5.40;3.58;;;;;;;6.82;100.00;97001.34;10479601;28;20058;-72
2021/11/02 21:08:38;;;;;;;7.63;4.25;;;;;;;6.82;100.00;97007.53;10478407;28;20161;-71
2021/11/02 21:13:45;;;;;;;6.07;4.18;;;;;;;6.84;100.00;96994.81;10483439;28;20032;-74
2021/11/02 21:18:53;;;;;;;7.85;4.20;;;;;;;6.84;100.00;97002.03;10467743;28;20047;-67
2021/11/02 21:23:56;;;;;;;8.88;4.20;;;;;;;6.83;100.00;97006.53;10481801;28;20119;-66
2021/11/02 21:29:00;;;;;;;7.22;3.70;;;;;;;6.79;100.00;97008.72;10469862;28;20044;-68
2021/11/02 21:34:07;;;;;;;5.03;4.07;;;;;;;6.81;100.00;97005.03;10469968;28;20124;-66
2021/11/02 21:39:11;;;;;;;5.65;4.10;;;;;;;6.78;100.00;97009.72;10468238;28;20115;-66
2021/11/02 21:44:24;;;;;;;8.43;4.10;;;;;;;6.72;100.00;97023.81;10457182;28;20119;-68
2021/11/02 21:49:53;;;;;;;6.28;4.15;;;;;;;6.73;100.00;97024.63;10459899;28;20048;-72
2021/11/02 21:55:01;;;;;;;7.28;4.40;;;;;;;6.74;100.00;97031.66;10464665;28;20067;-71
2021/11/02 22:00:06;;;;;;;6.45;4.00;;;;;;;6.70;100.00;97019.63;10467489;28;20047;-72
2021/11/02 22:05:15;;;;;;;6.03;3.55;;;;;;;6.70;100.00;97025.81;10461232;28;20049;-72
2021/11/02 22:10:19;;;;;;;5.35;3.60;;;;;;;6.72;100.00;97029.16;10466301;28;20517;-71
2021/11/02 22:15:22;;;;;;;5.50;3.33;;;;;;;6.73;100.00;97024.63;10478473;28;20379;-72
2021/11/02 22:20:27;;;;;;;4.30;3.38;;;;;;;6.75;100.00;97020.78;10467173;28;20045;-71
2021/11/02 22:25:31;;;;;;;5.13;3.40;;;;;;;6.76;100.00;97024.28;10476409;28;20040;-72
2021/11/02 22:30:37;;;;;;;6.45;2.72;;;;;;;6.71;100.00;97027.47;10461119;28;20053;-72
2021/11/02 22:35:44;;;;;;;3.78;2.50;;;;;;;6.71;100.00;97022.13;10464904;28;20052;-71
2021/11/02 22:40:48;;;;;;;3.83;2.70;;;;;;;6.67;100.00;97026.16;10476467;28;20056;-72
2021/11/02 22:45:51;;;;;;;3.78;2.33;;;;;;;6.66;100.00;97029.81;10474821;28;20045;-72
2021/11/02 22:50:56;;;;;;;4.90;2.30;;;;;;;6.67;100.00;97036.84;10473835;28;20162;-72
2021/11/02 22:56:00;;;;;;;3.20;2.60;;;;;;;6.65;100.00;97038.03;10480157;28;20044;-71
2021/11/02 23:01:04;;;;;;;2.83;2.13;;;;;;;6.63;100.00;97038.22;10470254;28;20776;-71
2021/11/02 23:06:09;;;;;;;2.67;2.10;;;;;;;6.61;100.00;97034.88;10482015;28;20055;-71
2021/11/02 23:11:12;;;;;;;2.13;1.90;;;;;;;6.60;100.00;97041.22;10475385;28;20063;-71
2021/11/02 23:16:15;;;;;;;2.30;2.10;;;;;;;6.58;100.00;97029.84;10479798;28;20877;-71
2021/11/02 23:21:18;;;;;;;3.13;1.80;;;;;;;6.60;100.00;97022.50;10475742;28;20045;-71
2021/11/02 23:26:33;;;;;;;2.65;2.03;;;;;;;6.60;100.00;97020.63;10465514;28;20552;-71
2021/11/02 23:31:37;;;;;;;4.63;2.08;;;;;;;6.56;100.00;97019.34;10473730;28;20133;-73
2021/11/02 23:36:42;;;;;;;2.50;2.20;;;;;;;6.60;100.00;97025.16;10475349;28;20143;-71
2021/11/02 23:41:47;;;;;;;4.32;2.50;;;;;;;6.50;100.00;97011.16;10475321;28;20474;-70
2021/11/02 23:46:51;;;;;;;3.80;2.90;;;;;;;6.45;100.00;97009.81;10473131;28;20036;-70
2021/11/02 23:51:54;;;;;;;4.25;3.03;;;;;;;6.39;100.00;97013.19;10473229;28;20056;-71
2021/11/02 23:56:59;;;;;;;2.97;2.67;;;;;;;6.31;100.00;97006.00;10480635;28;20892;-68
